Time;durP1;ratioP1;P1;durP2;ratioP2;P2;SDS_P1;SDS_P2;PMS_P1;PMS_P2;Temp;Humidity;BMP_temperature;BMP_pressure;BME280_temperature;BME280_humidity;BME280_pressure;Samples;Min_cycle;Max_cycle;Signal;HPM_P1;HPM_P2
2022/05/27 00:00:09;;;;;;;;;;;12.60;99.90;;;;;;5069974;28;19945;-71
2022/05/27 00:02:40;;;;;;;;;;;12.60;99.90;;;;;;5087997;28;19932;-71
2022/05/27 00:05:12;;;;;;;;;;;12.70;99.90;;;;;;5090298;28;19934;-71
2022/05/27 00:07:44;;;;;;;;;;;12.70;99.90;;;;;;5081114;28;19925;-71
2022/05/27 00:10:15;;;;;;;;;;;12.70;99.90;;;;;;5075796;28;19938;-71
2022/05/27 00:12:47;;;;;;;;;;;12.70;99.90;;;;;;5083364;28;20214;-71
2022/05/27 00:15:19;;;;;;;;;;;12.80;99.90;;;;;;5106871;28;19923;-72
2022/05/27 00:17:46;;;;;;;;;;;12.80;99.90;;;;;;5073353;28;19928;-71
2022/05/27 00:20:18;;;;;;;;;;;12.80;99.90;;;;;;5089636;28;19932;-72
2022/05/27 00:22:49;;;;;;;;;;;12.80;99.90;;;;;;5054356;28;19935;-72
2022/05/27 00:25:21;;;;;;;;;;;12.80;99.90;;;;;;5094756;28;19929;-71
2022/05/27 00:27:53;;;;;;;;;;;12.80;99.90;;;;;;5090922;28;19931;-72
2022/05/27 00:30:25;;;;;;;;;;;12.80;99.90;;;;;;5097519;28;19924;-72
2022/05/27 00:32:52;;;;;;;;;;;12.70;99.90;;;;;;5056903;28;19938;-72
2022/05/27 00:35:23;;;;;;;;;;;12.70;99.90;;;;;;5079637;28;19924;-72
2022/05/27 00:37:50;;;;;;;;;;;12.60;99.90;;;;;;5072031;28;19924;-72
2022/05/27 00:40:17;;;;;;;;;;;12.60;99.90;;;;;;5064720;28;20360;-72
2022/05/27 00:42:49;;;;;;;;;;;12.50;99.90;;;;;;5071346;28;19935;-72
2022/05/27 00:45:23;;;;;;;;;;;12.50;99.90;;;;;;5073002;28;19928;-72
2022/05/27 00:47:51;;;;;;;;;;;12.40;99.90;;;;;;5078030;28;19934;-71
2022/05/27 00:50:30;;;;;;;;;;;12.40;99.90;;;;;;5074579;28;19931;-72
2022/05/27 00:53:04;;;;;;;;;;;12.30;99.90;;;;;;5098719;28;19931;-71
2022/05/27 00:55:41;;;;;;;;;;;12.30;99.90;;;;;;5105837;28;19939;-72
2022/05/27 00:58:12;;;;;;;;;;;12.30;99.90;;;;;;5065841;28;19932;-71
2022/05/27 01:00:44;;;;;;;;;;;12.30;99.90;;;;;;5089549;28;19935;-71
2022/05/27 01:03:13;;;;;;;;;;;12.20;99.90;;;;;;5068122;28;19978;-72
2022/05/27 01:05:45;;;;;;;;;;;12.10;99.90;;;;;;5060577;28;20215;-72
2022/05/27 01:08:19;;;;;;;;;;;12.10;99.90;;;;;;5066985;28;19935;-72
2022/05/27 01:11:02;;;;;;;;;;;12.00;99.90;;;;;;5061555;28;19956;-72
2022/05/27 01:13:54;;;;;;;;;;;12.00;99.90;;;;;;5075979;28;19931;-71
2022/05/27 01:16:34;;;;;;;;;;;11.90;99.90;;;;;;5047987;28;20406;-71
2022/05/27 01:22:17;;;;;;;;;;;11.90;99.90;;;;;;5064237;28;19928;-72
2022/05/27 01:24:50;;;;;;;;;;;11.80;99.90;;;;;;5073563;28;19929;-72
2022/05/27 01:27:31;;;;;;;;;;;11.80;99.90;;;;;;5070763;28;20300;-72
2022/05/27 01:30:18;;;;;;;;;;;11.80;99.90;;;;;;5073691;28;19948;-72
2022/05/27 01:33:10;;;;;;;;;;;11.90;99.90;;;;;;5080326;28;20296;-71
2022/05/27 01:35:44;;;;;;;;;;;11.90;99.90;;;;;;5032175;28;20400;-72
2022/05/27 01:38:27;;;;;;;;;;;12.00;99.90;;;;;;5080552;28;19932;-72
2022/05/27 01:41:02;;;;;;;;;;;12.10;99.90;;;;;;5072665;28;19924;-72
2022/05/27 01:43:43;;;;;;;;;;;12.10;99.90;;;;;;5085344;28;19934;-71
2022/05/27 01:46:16;;;;;;;;;;;12.10;99.90;;;;;;5042508;28;19928;-72
2022/05/27 01:48:57;;;;;;;;;;;12.20;99.90;;;;;;5076215;28;19939;-72
2022/05/27 01:51:40;;;;;;;;;;;12.20;99.90;;;;;;5082463;28;20395;-71
2022/05/27 01:54:16;;;;;;;;;;;12.20;99.90;;;;;;5087103;28;19932;-72
2022/05/27 01:56:49;;;;;;;;;;;12.20;99.90;;;;;;5082975;28;19928;-72
2022/05/27 01:59:41;;;;;;;;;;;12.30;99.90;;;;;;5088681;28;20416;-72
2022/05/27 02:02:17;;;;;;;;;;;12.30;99.90;;;;;;5052928;28;19929;-72
2022/05/27 02:05:00;;;;;;;;;;;12.40;99.90;;;;;;5088365;28;19928;-72
2022/05/27 02:07:37;;;;;;;;;;;12.40;99.90;;;;;;5066741;28;19935;-72
2022/05/27 02:10:07;;;;;;;;;;;12.50;99.90;;;;;;5071595;28;19932;-72
2022/05/27 02:12:43;;;;;;;;;;;12.50;99.90;;;;;;5061269;28;19928;-72
2022/05/27 02:15:23;;;;;;;;;;;12.50;99.90;;;;;;5081302;28;20335;-72
2022/05/27 02:18:13;;;;;;;;;;;12.50;99.90;;;;;;5058911;28;19931;-72
2022/05/27 02:20:48;;;;;;;;;;;12.50;99.90;;;;;;5049694;28;19928;-71
2022/05/27 02:23:22;;;;;;;;;;;12.60;99.90;;;;;;5057691;28;19924;-72
2022/05/27 02:25:55;;;;;;;;;;;12.60;99.90;;;;;;5058464;28;19925;-72
2022/05/27 02:28:28;;;;;;;;;;;12.60;99.90;;;;;;5055778;28;20023;-72
2022/05/27 02:30:57;;;;;;;;;;;12.60;99.90;;;;;;5077087;28;20303;-72
2022/05/27 02:36:25;;;;;;;;;;;12.70;99.90;;;;;;5081274;28;19928;-72
2022/05/27 02:38:56;;;;;;;;;;;12.70;99.90;;;;;;5066475;28;19951;-72
2022/05/27 02:41:35;;;;;;;;;;;12.80;99.90;;;;;;5081679;28;19925;-72
2022/05/27 02:44:32;;;;;;;;;;;12.80;99.90;;;;;;5088433;28;20441;-72
2022/05/27 02:47:21;;;;;;;;;;;12.80;99.90;;;;;;5097386;28;19924;-72
2022/05/27 02:50:11;;;;;;;;;;;12.80;99.90;;;;;;5067663;28;19932;-72
2022/05/27 02:53:05;;;;;;;;;;;12.80;99.90;;;;;;5063740;28;19928;-72
2022/05/27 02:55:37;;;;;;;;;;;12.80;99.90;;;;;;5072928;28;19925;-72
2022/05/27 02:58:09;;;;;;;;;;;12.80;99.90;;;;;;5066205;28;19924;-71
2022/05/27 03:00:43;;;;;;;;;;;12.80;99.90;;;;;;5058884;28;19924;-72
2022/05/27 03:03:15;;;;;;;;;;;12.80;99.90;;;;;;5090180;28;19924;-72
2022/05/27 03:06:05;;;;;;;;;;;12.80;99.90;;;;;;5083522;28;20380;-72
2022/05/27 03:08:43;;;;;;;;;;;12.90;99.90;;;;;;5068570;28;19970;-72
2022/05/27 03:11:30;;;;;;;;;;;12.90;99.90;;;;;;5049823;28;19924;-72
2022/05/27 03:14:11;;;;;;;;;;;13.00;99.90;;;;;;5072645;28;19928;-72
2022/05/27 03:17:03;;;;;;;;;;;13.10;99.90;;;;;;5061512;28;19935;-72
2022/05/27 03:19:37;;;;;;;;;;;13.10;99.90;;;;;;5055802;28;19924;-71
2022/05/27 03:22:09;;;;;;;;;;;13.10;99.90;;;;;;5096619;28;19924;-71
2022/05/27 03:24:54;;;;;;;;;;;13.10;99.90;;;;;;5088522;28;19928;-72
2022/05/27 03:27:26;;;;;;;;;;;13.20;99.90;;;;;;5079370;28;19932;-72
2022/05/27 03:30:04;;;;;;;;;;;13.20;99.90;;;;;;5054783;28;19924;-72
2022/05/27 03:32:41;;;;;;;;;;;13.20;99.90;;;;;;5060228;28;19935;-72
2022/05/27 03:35:22;;;;;;;;;;;13.30;99.90;;;;;;5069000;28;19931;-72
2022/05/27 03:38:10;;;;;;;;;;;13.20;99.90;;;;;;5075533;28;19933;-71
2022/05/27 03:40:48;;;;;;;;;;;13.20;99.90;;;;;;5050237;28;19932;-71
2022/05/27 03:43:20;;;;;;;;;;;13.20;99.90;;;;;;5084946;28;19928;-72
2022/05/27 03:45:53;;;;;;;;;;;13.20;99.90;;;;;;5092600;28;19935;-72
2022/05/27 03:48:27;;;;;;;;;;;13.20;99.90;;;;;;5099624;28;19924;-72
2022/05/27 03:51:06;;;;;;;;;;;13.20;99.90;;;;;;5079237;28;19932;-72
2022/05/27 03:56:23;;;;;;;;;;;13.10;99.90;;;;;;5078226;28;20011;-72
2022/05/27 03:58:49;;;;;;;;;;;13.10;99.90;;;;;;5054496;28;19924;-72
2022/05/27 04:01:20;;;;;;;;;;;13.10;99.90;;;;;;5077036;28;19928;-72
2022/05/27 04:03:52;;;;;;;;;;;13.10;99.90;;;;;;5059343;28;19924;-76
2022/05/27 04:06:19;;;;;;;;;;;13.20;99.90;;;;;;5063418;28;19924;-73
2022/05/27 04:08:45;;;;;;;;;;;13.20;99.90;;;;;;5073440;28;19935;-73
2022/05/27 04:11:17;;;;;;;;;;;13.10;99.90;;;;;;5079183;28;19928;-72
2022/05/27 04:13:49;;;;;;;;;;;13.10;99.90;;;;;;5062942;28;19931;-72
2022/05/27 04:16:20;;;;;;;;;;;13.10;99.90;;;;;;5082740;28;20005;-75
2022/05/27 04:18:52;;;;;;;;;;;13.10;99.90;;;;;;5107946;27;20010;-71
2022/05/27 04:21:24;;;;;;;;;;;13.00;99.90;;;;;;5082218;28;20370;-72
2022/05/27 04:23:56;;;;;;;;;;;13.00;99.90;;;;;;5068476;28;19930;-72
2022/05/27 04:26:28;;;;;;;;;;;13.00;99.90;;;;;;5082097;28;19935;-72
2022/05/27 04:29:00;;;;;;;;;;;13.00;99.90;;;;;;5097676;28;19924;-72
2022/05/27 04:31:31;;;;;;;;;;;13.00;99.90;;;;;;5060532;28;19924;-72
2022/05/27 04:34:06;;;;;;;;;;;13.00;99.90;;;;;;5081911;28;20014;-72
2022/05/27 04:36:38;;;;;;;;;;;13.10;99.90;;;;;;5082742;28;20404;-72
2022/05/27 04:39:04;;;;;;;;;;;13.10;99.90;;;;;;5063698;28;19924;-72
2022/05/27 04:41:36;;;;;;;;;;;13.10;99.90;;;;;;5084810;28;19924;-73
2022/05/27 04:44:08;;;;;;;;;;;13.10;99.90;;;;;;5103568;28;19928;-72
2022/05/27 04:46:35;;;;;;;;;;;13.10;99.90;;;;;;5086078;28;19928;-72
2022/05/27 04:49:06;;;;;;;;;;;13.10;99.90;;;;;;5068678;28;19931;-71
2022/05/27 04:51:38;;;;;;;;;;;13.10;99.90;;;;;;5065462;28;19928;-72
2022/05/27 04:54:09;;;;;;;;;;;13.20;99.90;;;;;;5098642;28;19928;-72
2022/05/27 04:56:41;;;;;;;;;;;13.20;99.90;;;;;;5088096;28;20014;-72
2022/05/27 04:59:12;;;;;;;;;;;13.30;99.90;;;;;;5049658;28;19924;-72
2022/05/27 05:01:44;;;;;;;;;;;13.40;99.90;;;;;;5101675;28;19932;-72
2022/05/27 05:04:15;;;;;;;;;;;13.50;99.90;;;;;;5085616;28;19931;-72
2022/05/27 05:06:42;;;;;;;;;;;13.60;99.90;;;;;;5087193;28;19928;-72
2022/05/27 05:09:09;;;;;;;;;;;13.70;99.90;;;;;;5092950;28;20295;-72
2022/05/27 05:11:41;;;;;;;;;;;13.80;99.90;;;;;;5075021;28;19955;-72
2022/05/27 05:14:08;;;;;;;;;;;13.90;99.90;;;;;;5071725;28;19939;-71
2022/05/27 05:16:39;;;;;;;;;;;14.00;99.90;;;;;;5089430;28;19929;-71
2022/05/27 05:19:11;;;;;;;;;;;14.10;99.90;;;;;;5098529;28;19931;-72
2022/05/27 05:21:43;;;;;;;;;;;14.10;99.90;;;;;;5073981;28;19928;-71
2022/05/27 05:24:14;;;;;;;;;;;14.20;99.90;;;;;;5071273;28;19933;-72
2022/05/27 05:26:46;;;;;;;;;;;14.30;99.90;;;;;;5084967;28;19924;-71
2022/05/27 05:29:18;;;;;;;;;;;14.30;99.90;;;;;;5100491;28;20590;-71
2022/05/27 05:31:49;;;;;;;;;;;14.40;99.90;;;;;;5054234;28;19925;-70
2022/05/27 05:34:21;;;;;;;;;;;14.50;99.90;;;;;;5062427;28;19931;-70
2022/05/27 05:36:47;;;;;;;;;;;14.50;99.90;;;;;;5069980;28;19929;-70
2022/05/27 05:39:19;;;;;;;;;;;14.50;99.90;;;;;;5088157;28;20395;-70
2022/05/27 05:41:55;;;;;;;;;;;14.50;99.90;;;;;;5081543;28;19928;-71
2022/05/27 05:44:27;;;;;;;;;;;14.60;99.90;;;;;;5086837;28;19924;-71
2022/05/27 05:46:59;;;;;;;;;;;14.70;99.90;;;;;;5071375;28;19924;-71
2022/05/27 05:49:26;;;;;;;;;;;14.70;99.90;;;;;;5068632;28;20015;-70
2022/05/27 05:51:58;;;;;;;;;;;14.80;99.90;;;;;;5070717;28;19924;-70
2022/05/27 05:54:30;;;;;;;;;;;14.80;99.90;;;;;;5071534;28;19928;-71
2022/05/27 05:57:02;;;;;;;;;;;14.80;99.90;;;;;;5068160;28;19928;-71
2022/05/27 05:59:35;;;;;;;;;;;14.90;99.90;;;;;;5104064;27;19932;-71
2022/05/27 06:02:07;;;;;;;;;;;15.00;99.90;;;;;;5072479;28;19928;-71
2022/05/27 06:04:38;;;;;;;;;;;15.10;99.90;;;;;;5071197;28;19931;-71
2022/05/27 06:07:10;;;;;;;;;;;15.10;99.90;;;;;;5069929;28;19932;-71
2022/05/27 06:09:42;;;;;;;;;;;15.10;99.90;;;;;;5088835;28;19928;-71
2022/05/27 06:12:09;;;;;;;;;;;15.10;99.90;;;;;;5095927;27;20321;-71
2022/05/27 06:14:36;;;;;;;;;;;15.20;99.90;;;;;;5069899;28;20387;-71
2022/05/27 06:17:08;;;;;;;;;;;15.30;99.90;;;;;;5081701;28;19938;-72
2022/05/27 06:19:39;;;;;;;;;;;15.30;99.90;;;;;;5070610;28;19947;-71
2022/05/27 06:22:11;;;;;;;;;;;15.40;99.90;;;;;;5086968;28;19935;-71
2022/05/27 06:24:43;;;;;;;;;;;15.50;99.90;;;;;;5062301;28;19931;-71
2022/05/27 06:27:15;;;;;;;;;;;15.50;99.90;;;;;;5063689;28;19955;-71
2022/05/27 06:35:22;;;;;;;;;;;15.80;99.90;;;;;;5081086;28;19924;-71
2022/05/27 06:37:54;;;;;;;;;;;15.90;99.90;;;;;;5069416;28;19924;-71
2022/05/27 06:40:25;;;;;;;;;;;15.90;99.90;;;;;;5080355;28;19924;-72
2022/05/27 06:42:52;;;;;;;;;;;16.00;99.90;;;;;;5089071;28;20305;-71
2022/05/27 06:45:18;;;;;;;;;;;16.00;99.90;;;;;;5081627;28;19931;-72
2022/05/27 06:47:50;;;;;;;;;;;16.10;99.90;;;;;;5085932;28;19938;-72
2022/05/27 06:50:16;;;;;;;;;;;16.20;99.90;;;;;;5068943;28;19924;-71
2022/05/27 06:52:50;;;;;;;;;;;16.20;99.90;;;;;;5069003;28;19924;-71
2022/05/27 06:55:22;;;;;;;;;;;16.30;99.90;;;;;;5096963;28;19924;-72
2022/05/27 06:57:53;;;;;;;;;;;16.30;99.90;;;;;;5071053;28;19924;-72
2022/05/27 07:00:25;;;;;;;;;;;16.30;99.90;;;;;;5081746;28;20376;-71
2022/05/27 07:02:56;;;;;;;;;;;16.30;99.90;;;;;;5102246;28;19924;-72
2022/05/27 07:05:28;;;;;;;;;;;16.30;99.90;;;;;;5069547;28;19939;-71
2022/05/27 07:08:01;;;;;;;;;;;16.40;99.90;;;;;;5062667;28;19932;-71
2022/05/27 07:10:33;;;;;;;;;;;16.50;99.90;;;;;;5069872;28;19939;-71
2022/05/27 07:13:04;;;;;;;;;;;16.60;99.90;;;;;;5069302;28;20424;-72
2022/05/27 07:15:36;;;;;;;;;;;16.60;99.90;;;;;;5086522;28;20045;-71
2022/05/27 07:18:04;;;;;;;;;;;16.60;99.90;;;;;;5069179;28;20475;-72
2022/05/27 07:20:36;;;;;;;;;;;16.60;99.90;;;;;;5085146;28;20308;-71
2022/05/27 07:23:03;;;;;;;;;;;16.70;99.90;;;;;;5069530;28;19924;-71
2022/05/27 07:25:35;;;;;;;;;;;16.80;99.90;;;;;;5078047;28;19935;-71
2022/05/27 07:28:07;;;;;;;;;;;17.00;99.90;;;;;;5069565;28;19934;-71
2022/05/27 07:30:39;;;;;;;;;;;16.90;99.90;;;;;;5084156;28;19932;-70
2022/05/27 07:33:11;;;;;;;;;;;16.80;99.90;;;;;;5087523;28;20277;-72
2022/05/27 07:35:38;;;;;;;;;;;16.90;99.90;;;;;;5070343;28;20262;-72
2022/05/27 07:38:09;;;;;;;;;;;16.90;99.90;;;;;;5077370;28;19923;-71
2022/05/27 07:40:41;;;;;;;;;;;17.10;99.90;;;;;;5066597;28;20393;-71
2022/05/27 07:43:12;;;;;;;;;;;17.20;99.90;;;;;;5092367;28;20297;-71
2022/05/27 07:45:44;;;;;;;;;;;17.30;99.90;;;;;;5084928;28;19935;-71
2022/05/27 07:48:16;;;;;;;;;;;17.30;99.90;;;;;;5090292;28;19971;-71
2022/05/27 07:50:47;;;;;;;;;;;17.40;99.90;;;;;;5069311;28;19932;-71
2022/05/27 07:53:16;;;;;;;;;;;17.40;99.90;;;;;;5077744;28;20456;-71
2022/05/27 07:55:47;;;;;;;;;;;17.40;99.90;;;;;;5054866;28;20309;-71
2022/05/27 07:58:19;;;;;;;;;;;17.60;99.90;;;;;;5088765;28;19932;-71
2022/05/27 08:00:51;;;;;;;;;;;17.60;99.90;;;;;;5073174;28;19925;-71
2022/05/27 08:03:22;;;;;;;;;;;17.70;99.90;;;;;;5096923;28;20397;-71
2022/05/27 08:05:56;;;;;;;;;;;17.80;99.90;;;;;;5074748;28;21262;-71
2022/05/27 08:08:29;;;;;;;;;;;17.80;99.90;;;;;;5082169;28;19999;-71
2022/05/27 08:11:01;;;;;;;;;;;17.80;99.90;;;;;;5102426;28;19934;-71
2022/05/27 08:13:33;;;;;;;;;;;17.80;99.90;;;;;;5086245;28;19924;-71
2022/05/27 08:16:05;;;;;;;;;;;17.90;99.90;;;;;;5083873;28;19935;-71
2022/05/27 08:18:37;;;;;;;;;;;18.00;99.90;;;;;;5102435;28;19928;-71
2022/05/27 08:21:09;;;;;;;;;;;18.00;99.90;;;;;;5057597;28;19928;-71
2022/05/27 08:23:40;;;;;;;;;;;18.20;99.90;;;;;;5089018;28;20385;-71
2022/05/27 08:26:12;;;;;;;;;;;18.20;99.90;;;;;;5087848;28;19924;-71
2022/05/27 08:28:44;;;;;;;;;;;18.40;99.90;;;;;;5095899;28;19928;-71
2022/05/27 08:31:16;;;;;;;;;;;18.50;99.90;;;;;;5072480;28;19951;-71
2022/05/27 08:39:28;;;;;;;;;;;18.60;99.90;;;;;;5077333;28;19928;-71
2022/05/27 08:42:15;;;;;;;;;;;18.60;99.90;;;;;;5080688;28;20388;-72
2022/05/27 08:44:41;;;;;;;;;;;18.50;99.90;;;;;;5070319;28;19924;-71
2022/05/27 08:47:16;;;;;;;;;;;18.50;99.90;;;;;;5088084;28;19925;-72
2022/05/27 08:49:45;;;;;;;;;;;18.50;99.90;;;;;;5072076;28;19983;-72
2022/05/27 08:52:21;;;;;;;;;;;18.50;99.90;;;;;;5071671;28;19924;-72
2022/05/27 08:54:55;;;;;;;;;;;18.50;99.90;;;;;;5055192;28;20406;-72
2022/05/27 09:00:24;;;;;;;;;;;18.40;99.90;;;;;;5084099;28;19935;-71
2022/05/27 09:03:00;;;;;;;;;;;18.50;99.90;;;;;;5069854;28;20404;-72
2022/05/27 09:05:39;;;;;;;;;;;18.60;99.90;;;;;;5066341;28;19935;-71
2022/05/27 09:08:21;;;;;;;;;;;18.80;99.90;;;;;;5082139;28;19924;-71
2022/05/27 09:10:55;;;;;;;;;;;18.90;99.90;;;;;;5059531;28;19931;-72
2022/05/27 09:13:35;;;;;;;;;;;18.90;99.90;;;;;;5088548;28;19932;-71
2022/05/27 09:16:22;;;;;;;;;;;19.10;99.90;;;;;;5068071;28;19928;-72
2022/05/27 09:19:07;;;;;;;;;;;19.20;99.90;;;;;;5061284;28;19924;-72
2022/05/27 09:22:12;;;;;;;;;;;19.20;99.90;;;;;;5068391;28;20304;-72
2022/05/27 09:24:57;;;;;;;;;;;19.10;99.90;;;;;;5055920;28;19932;-72
2022/05/27 09:27:37;;;;;;;;;;;19.00;99.90;;;;;;5069175;28;19924;-72
2022/05/27 09:30:10;;;;;;;;;;;19.20;99.90;;;;;;5077389;28;19939;-72
2022/05/27 09:32:50;;;;;;;;;;;19.40;99.90;;;;;;5083991;28;19924;-72
2022/05/27 09:35:21;;;;;;;;;;;19.50;99.90;;;;;;5078319;28;20358;-72
2022/05/27 09:37:54;;;;;;;;;;;19.40;99.90;;;;;;5073983;28;19987;-72
2022/05/27 09:40:31;;;;;;;;;;;19.30;99.90;;;;;;5054095;28;19932;-72
2022/05/27 09:43:07;;;;;;;;;;;19.40;99.90;;;;;;5052965;28;19978;-72
2022/05/27 09:45:40;;;;;;;;;;;19.40;99.90;;;;;;5093086;28;19991;-72
2022/05/27 09:48:12;;;;;;;;;;;19.10;99.90;;;;;;5054876;28;19929;-72
2022/05/27 09:50:44;;;;;;;;;;;19.10;99.90;;;;;;5084966;28;19924;-72
2022/05/27 09:53:18;;;;;;;;;;;19.20;99.90;;;;;;5064607;28;20270;-72
2022/05/27 09:55:52;;;;;;;;;;;19.50;99.90;;;;;;5061673;28;20472;-72
2022/05/27 09:58:23;;;;;;;;;;;19.60;99.90;;;;;;5067645;28;19928;-72
2022/05/27 10:00:49;;;;;;;;;;;19.80;99.90;;;;;;5071152;28;19939;-72
2022/05/27 10:03:23;;;;;;;;;;;19.80;99.90;;;;;;5079331;28;20400;-72
2022/05/27 10:06:03;;;;;;;;;;;19.90;99.90;;;;;;5069472;28;19928;-72
2022/05/27 10:08:37;;;;;;;;;;;20.10;99.90;;;;;;5104487;28;19928;-72
2022/05/27 10:11:32;;;;;;;;;;;20.40;99.90;;;;;;5084268;28;19935;-72
2022/05/27 10:14:13;;;;;;;;;;;20.40;99.90;;;;;;5064188;28;20103;-72
2022/05/27 10:17:05;;;;;;;;;;;20.50;99.90;;;;;;5062476;28;19933;-72
2022/05/27 10:19:38;;;;;;;;;;;20.50;99.90;;;;;;5068939;28;19946;-72
2022/05/27 10:22:04;;;;;;;;;;;20.20;99.90;;;;;;5092563;28;20803;-72
2022/05/27 10:24:38;;;;;;;;;;;20.10;99.90;;;;;;5078581;28;19928;-72
2022/05/27 10:27:09;;;;;;;;;;;20.00;99.90;;;;;;5070983;28;20328;-72
2022/05/27 10:29:55;;;;;;;;;;;20.00;99.90;;;;;;5063732;28;20049;-72
2022/05/27 10:32:31;;;;;;;;;;;20.00;99.90;;;;;;5052902;28;19928;-72
2022/05/27 10:35:15;;;;;;;;;;;20.00;99.90;;;;;;5103431;28;19928;-72
2022/05/27 10:37:47;;;;;;;;;;;20.10;99.90;;;;;;5079340;28;20316;-72
2022/05/27 10:40:37;;;;;;;;;;;20.40;99.90;;;;;;5067202;28;20403;-71
2022/05/27 10:43:17;;;;;;;;;;;20.70;99.90;;;;;;5061557;28;20031;-72
2022/05/27 10:45:50;;;;;;;;;;;20.70;99.90;;;;;;5088275;28;20308;-72
2022/05/27 10:48:42;;;;;;;;;;;20.30;99.90;;;;;;5065000;28;19924;-72
2022/05/27 10:51:21;;;;;;;;;;;20.00;99.90;;;;;;5080634;28;19928;-72
2022/05/27 10:53:57;;;;;;;;;;;19.90;99.90;;;;;;5063894;28;19936;-72
2022/05/27 10:56:40;;;;;;;;;;;19.80;99.90;;;;;;5065312;28;19931;-72
2022/05/27 11:02:19;;;;;;;;;;;19.90;99.90;;;;;;5084731;28;19931;-72
2022/05/27 11:04:46;;;;;;;;;;;19.90;99.90;;;;;;5084992;28;19943;-72
2022/05/27 11:07:23;;;;;;;;;;;19.80;99.90;;;;;;5060480;28;19924;-72
2022/05/27 11:10:05;;;;;;;;;;;19.70;99.90;;;;;;5086644;28;19950;-72
2022/05/27 11:16:01;;;;;;;;;;;19.70;99.90;;;;;;5083332;28;20034;-72
2022/05/27 11:18:32;;;;;;;;;;;19.90;99.90;;;;;;5074449;28;19943;-71
2022/05/27 11:21:09;;;;;;;;;;;20.00;99.90;;;;;;5056358;28;19935;-71
2022/05/27 11:23:43;;;;;;;;;;;19.90;99.90;;;;;;5083231;28;19935;-72
2022/05/27 11:26:35;;;;;;;;;;;19.90;99.90;;;;;;5059776;28;19935;-72
2022/05/27 11:29:21;;;;;;;;;;;20.00;99.90;;;;;;5082807;28;19928;-72
2022/05/27 11:32:12;;;;;;;;;;;20.00;99.90;;;;;;5070801;28;19924;-72
2022/05/27 11:35:02;;;;;;;;;;;20.20;99.90;;;;;;5081844;28;19928;-72
2022/05/27 11:37:41;;;;;;;;;;;20.40;99.90;;;;;;5090138;28;19924;-72
2022/05/27 11:40:13;;;;;;;;;;;20.30;99.90;;;;;;5079985;28;20007;-71
2022/05/27 11:42:51;;;;;;;;;;;20.30;99.90;;;;;;5076654;28;19935;-71
2022/05/27 11:45:24;;;;;;;;;;;20.40;99.90;;;;;;5055655;28;19943;-71
2022/05/27 11:48:06;;;;;;;;;;;20.30;99.90;;;;;;5074599;28;19947;-71
2022/05/27 11:50:41;;;;;;;;;;;20.40;99.90;;;;;;5089326;28;20381;-72
2022/05/27 11:53:12;;;;;;;;;;;20.60;99.90;;;;;;5080377;28;20007;-72
2022/05/27 11:55:47;;;;;;;;;;;20.80;99.90;;;;;;5086820;28;19928;-73
2022/05/27 11:58:24;;;;;;;;;;;20.80;99.90;;;;;;5065032;28;19929;-71
2022/05/27 12:01:02;;;;;;;;;;;20.80;99.90;;;;;;5057852;28;19924;-72
2022/05/27 12:03:34;;;;;;;;;;;20.80;99.90;;;;;;5078385;28;19927;-72
2022/05/27 12:06:06;;;;;;;;;;;20.80;99.90;;;;;;5077266;28;19935;-72
2022/05/27 12:08:43;;;;;;;;;;;20.70;99.90;;;;;;5096507;28;19924;-72
2022/05/27 12:11:24;;;;;;;;;;;20.60;99.90;;;;;;5076758;28;19928;-72
2022/05/27 12:14:00;;;;;;;;;;;20.70;99.90;;;;;;5061338;28;19946;-72
2022/05/27 12:16:37;;;;;;;;;;;20.80;99.90;;;;;;5077420;28;19928;-72
2022/05/27 12:19:10;;;;;;;;;;;20.80;99.90;;;;;;5058805;28;19982;-72
2022/05/27 12:21:43;;;;;;;;;;;20.80;99.90;;;;;;5085266;28;19931;-72
2022/05/27 12:24:18;;;;;;;;;;;20.90;99.90;;;;;;5079451;28;19932;-72
2022/05/27 12:26:47;;;;;;;;;;;20.90;99.90;;;;;;5072149;28;19928;-71
2022/05/27 12:29:14;;;;;;;;;;;20.90;99.90;;;;;;5084412;28;19954;-72
2022/05/27 12:31:45;;;;;;;;;;;21.00;99.90;;;;;;5073283;28;19932;-72
2022/05/27 12:34:26;;;;;;;;;;;20.90;99.90;;;;;;5084207;28;19936;-72
2022/05/27 12:37:13;;;;;;;;;;;21.10;99.90;;;;;;5085997;28;20399;-72
2022/05/27 12:39:46;;;;;;;;;;;21.20;99.90;;;;;;5079487;28;19935;-71
2022/05/27 12:42:27;;;;;;;;;;;21.10;99.90;;;;;;5069709;28;19928;-71
2022/05/27 12:45:11;;;;;;;;;;;21.20;99.90;;;;;;5077669;28;20672;-72
2022/05/27 12:47:43;;;;;;;;;;;21.60;99.90;;;;;;5101546;28;19930;-72
2022/05/27 12:50:14;;;;;;;;;;;21.70;99.90;;;;;;5097825;28;19924;-72
2022/05/27 12:52:49;;;;;;;;;;;21.50;99.90;;;;;;5086156;28;20439;-72
2022/05/27 13:01:22;;;;;;;;;;;21.30;99.90;;;;;;5083969;28;19943;-71
2022/05/27 13:03:53;;;;;;;;;;;21.30;99.90;;;;;;5071039;28;20430;-71
2022/05/27 13:06:25;;;;;;;;;;;21.20;99.90;;;;;;5083361;28;19999;-71
2022/05/27 13:08:57;;;;;;;;;;;21.30;99.90;;;;;;5089077;28;19924;-72
2022/05/27 13:11:31;;;;;;;;;;;21.40;99.90;;;;;;5068223;28;19932;-71
2022/05/27 13:14:04;;;;;;;;;;;21.40;99.90;;;;;;5076923;28;19966;-72
2022/05/27 13:16:59;;;;;;;;;;;21.60;99.90;;;;;;5076481;28;20377;-71
2022/05/27 13:19:34;;;;;;;;;;;21.80;99.90;;;;;;5087049;28;19924;-72
2022/05/27 13:22:10;;;;;;;;;;;21.70;99.90;;;;;;5071048;28;19939;-72
2022/05/27 13:24:43;;;;;;;;;;;21.70;99.90;;;;;;5078738;28;19935;-72
2022/05/27 13:27:21;;;;;;;;;;;21.70;99.90;;;;;;5077633;28;20011;-72
2022/05/27 13:29:53;;;;;;;;;;;21.70;99.90;;;;;;5062935;28;19929;-72
2022/05/27 13:32:29;;;;;;;;;;;22.00;99.90;;;;;;5081065;28;19931;-71
2022/05/27 13:35:07;;;;;;;;;;;22.20;99.90;;;;;;5096404;28;20393;-71
2022/05/27 13:37:38;;;;;;;;;;;22.10;99.90;;;;;;5080767;28;19932;-71
2022/05/27 13:40:15;;;;;;;;;;;22.30;99.90;;;;;;5067898;28;19929;-72
2022/05/27 13:42:49;;;;;;;;;;;22.30;99.90;;;;;;5074471;28;20015;-72
2022/05/27 13:45:21;;;;;;;;;;;22.20;99.90;;;;;;5077215;28;19924;-72
2022/05/27 13:47:58;;;;;;;;;;;22.00;99.90;;;;;;5101130;28;20029;-72
2022/05/27 13:50:38;;;;;;;;;;;21.90;99.90;;;;;;5069183;28;19928;-72
2022/05/27 13:53:17;;;;;;;;;;;21.70;99.90;;;;;;5062813;28;19931;-71
2022/05/27 13:55:54;;;;;;;;;;;21.90;99.90;;;;;;5074060;28;19925;-72
2022/05/27 13:58:26;;;;;;;;;;;22.00;99.90;;;;;;5065971;28;19928;-72
2022/05/27 14:01:00;;;;;;;;;;;22.00;99.90;;;;;;5071299;28;20023;-72
2022/05/27 14:03:48;;;;;;;;;;;21.90;99.90;;;;;;5098257;28;20400;-72
2022/05/27 14:06:28;;;;;;;;;;;21.80;99.90;;;;;;5089243;28;19935;-72
2022/05/27 14:09:12;;;;;;;;;;;21.90;99.90;;;;;;5080620;28;20307;-72
2022/05/27 14:11:49;;;;;;;;;;;22.10;99.90;;;;;;5075564;28;19928;-72
2022/05/27 14:14:26;;;;;;;;;;;22.00;99.90;;;;;;5078046;28;19935;-71
2022/05/27 14:16:58;;;;;;;;;;;22.00;99.90;;;;;;5051643;28;19930;-72
2022/05/27 14:19:29;;;;;;;;;;;22.20;99.90;;;;;;5078820;28;20334;-72
2022/05/27 14:24:49;;;;;;;;;;;22.60;99.90;;;;;;5078858;28;19923;-72
2022/05/27 14:27:23;;;;;;;;;;;22.60;98.70;;;;;;5070057;28;19925;-72
2022/05/27 14:29:55;;;;;;;;;;;22.60;98.20;;;;;;5099659;28;20385;-72
2022/05/27 14:32:31;;;;;;;;;;;22.80;98.90;;;;;;5078329;28;20007;-72
2022/05/27 14:35:04;;;;;;;;;;;22.90;99.10;;;;;;5097023;28;20341;-72
2022/05/27 14:37:34;;;;;;;;;;;22.90;97.90;;;;;;5060258;28;19924;-72
2022/05/27 14:40:08;;;;;;;;;;;22.90;98.20;;;;;;5075373;28;19932;-71
2022/05/27 14:42:40;;;;;;;;;;;22.80;98.80;;;;;;5079904;28;19938;-72
2022/05/27 14:45:31;;;;;;;;;;;22.30;97.70;;;;;;5052220;28;19928;-72
2022/05/27 14:48:17;;;;;;;;;;;22.00;99.90;;;;;;5066753;28;19924;-72
2022/05/27 14:50:43;;;;;;;;;;;21.80;99.90;;;;;;5072133;28;19935;-71
2022/05/27 14:53:16;;;;;;;;;;;21.70;99.90;;;;;;5088809;28;20311;-72
2022/05/27 14:55:55;;;;;;;;;;;21.70;99.90;;;;;;5062173;28;20474;-72
2022/05/27 14:58:29;;;;;;;;;;;21.70;99.90;;;;;;5071455;28;19931;-72
2022/05/27 15:01:01;;;;;;;;;;;21.70;99.90;;;;;;5068728;28;20012;-71
2022/05/27 15:03:39;;;;;;;;;;;21.60;99.90;;;;;;5072281;28;19924;-71
2022/05/27 15:06:14;;;;;;;;;;;21.60;99.90;;;;;;5087839;28;19951;-72
2022/05/27 15:09:04;;;;;;;;;;;21.70;99.70;;;;;;5082509;28;19928;-72
2022/05/27 15:11:35;;;;;;;;;;;21.90;99.90;;;;;;5063582;28;20023;-72
2022/05/27 15:14:19;;;;;;;;;;;21.90;99.60;;;;;;5068242;28;19924;-72
2022/05/27 15:17:01;;;;;;;;;;;21.80;99.50;;;;;;5088536;28;19932;-71
2022/05/27 15:19:40;;;;;;;;;;;21.80;99.90;;;;;;5068440;28;19925;-71
2022/05/27 15:22:13;;;;;;;;;;;21.90;99.90;;;;;;5090569;28;19924;-71
2022/05/27 15:24:51;;;;;;;;;;;22.00;99.90;;;;;;5073596;28;19928;-71
2022/05/27 15:33:06;;;;;;;;;;;21.10;99.90;;;;;;5073558;28;19931;-71
2022/05/27 15:35:48;;;;;;;;;;;20.80;99.90;;;;;;5082767;28;19928;-71
2022/05/27 15:38:24;;;;;;;;;;;20.60;99.90;;;;;;5088119;28;19928;-72
2022/05/27 15:41:01;;;;;;;;;;;20.60;99.90;;;;;;5081429;28;19924;-71
2022/05/27 15:43:35;;;;;;;;;;;20.30;99.90;;;;;;5082586;28;19935;-71